createdAt,value
2022-08-17T00:00:43.099Z,79.06
2022-08-17T00:03:17.188Z,77.78
2022-08-17T00:05:48.990Z,79.08
2022-08-17T00:08:18.042Z,78.96
2022-08-17T00:10:46.330Z,78.10
2022-08-17T00:13:32.073Z,78.80
2022-08-17T00:16:02.593Z,79.99
2022-08-17T00:19:01.382Z,79.56
2022-08-17T00:21:23.901Z,79.03
2022-08-17T00:23:53.235Z,80.91
2022-08-17T00:26:43.643Z,81.10
2022-08-17T00:29:09.165Z,81.18
2022-08-17T00:31:37.540Z,82.66
2022-08-17T00:34:05.821Z,82.69
2022-08-17T00:36:33.597Z,82.78
2022-08-17T00:39:01.428Z,83.21
2022-08-17T00:41:31.558Z,83.19
2022-08-17T00:44:01.797Z,83.49
2022-08-17T00:46:32.568Z,83.61
2022-08-17T00:49:00.760Z,83.50
2022-08-17T00:51:31.347Z,83.70
2022-08-17T00:54:20.419Z,83.22
2022-08-17T00:56:53.232Z,83.54
2022-08-17T00:59:22.976Z,83.07
2022-08-17T01:01:51.162Z,83.06
2022-08-17T01:04:19.566Z,83.15
2022-08-17T01:06:50.596Z,83.34
2022-08-17T01:09:21.731Z,84.40
2022-08-17T01:11:53.381Z,83.92
2022-08-17T01:14:24.937Z,84.25
2022-08-17T01:16:57.436Z,83.97
2022-08-17T01:19:35.354Z,83.43
2022-08-17T01:22:12.074Z,84.96
2022-08-17T01:24:46.011Z,86.45
2022-08-17T01:27:14.808Z,84.98
2022-08-17T01:29:53.145Z,85.77
2022-08-17T01:32:23.179Z,86.57
2022-08-17T01:34:51.513Z,86.65
2022-08-17T01:37:22.702Z,85.81
2022-08-17T01:39:53.793Z,85.43
2022-08-17T01:42:49.058Z,85.76
2022-08-17T01:45:20.022Z,84.86
2022-08-17T01:47:47.764Z,83.89
2022-08-17T01:50:18.157Z,83.86
2022-08-17T01:52:51.007Z,83.91
2022-08-17T01:55:21.526Z,84.12
2022-08-17T01:57:54.261Z,83.86
2022-08-17T02:00:22.029Z,83.59
2022-08-17T02:02:49.933Z,84.08
2022-08-17T02:05:18.176Z,83.88
2022-08-17T02:07:59.345Z,83.93
2022-08-17T02:10:34.007Z,84.08
2022-08-17T02:13:03.456Z,84.43
2022-08-17T02:15:31.426Z,84.87
2022-08-17T02:17:59.199Z,85.20
2022-08-17T02:20:41.877Z,85.21
2022-08-17T02:23:12.031Z,86.14
2022-08-17T02:25:40.215Z,86.89
2022-08-17T02:28:11.043Z,86.51
2022-08-17T02:31:00.836Z,87.17
2022-08-17T02:33:41.728Z,87.03
2022-08-17T02:36:10.380Z,87.67
2022-08-17T02:38:38.946Z,88.02
2022-08-17T02:41:06.838Z,87.64
2022-08-17T02:43:34.692Z,88.09
2022-08-17T02:46:02.445Z,87.76
2022-08-17T02:48:31.186Z,87.47
2022-08-17T02:51:01.889Z,87.73
2022-08-17T02:53:35.882Z,87.90
2022-08-17T02:56:04.286Z,88.41
2022-08-17T02:58:34.991Z,88.70
2022-08-17T03:01:05.303Z,88.88
2022-08-17T03:03:33.137Z,88.51
2022-08-17T03:06:00.869Z,88.31
2022-08-17T03:08:28.624Z,88.11
2022-08-17T03:11:01.711Z,87.55
2022-08-17T03:13:29.592Z,87.52
2022-08-17T03:15:57.662Z,88.10
2022-08-17T03:18:27.884Z,87.47
2022-08-17T03:20:56.785Z,87.75
2022-08-17T03:23:30.399Z,87.89
2022-08-17T03:25:58.321Z,88.41
2022-08-17T03:28:26.402Z,88.58
2022-08-17T03:30:54.186Z,88.36
2022-08-17T03:33:21.991Z,87.77
2022-08-17T03:35:49.830Z,87.92
2022-08-17T03:38:20.106Z,88.46
2022-08-17T03:40:56.412Z,88.42
2022-08-17T03:43:26.376Z,88.11
2022-08-17T03:46:28.100Z,88.50
2022-08-17T03:49:19.078Z,88.54
2022-08-17T03:52:05.493Z,87.98
2022-08-17T03:54:52.092Z,86.62
2022-08-17T03:57:24.808Z,86.22
2022-08-17T03:59:53.937Z,85.45
2022-08-17T04:02:24.389Z,85.36
2022-08-17T04:04:52.473Z,85.22
2022-08-17T04:07:21.348Z,85.10
2022-08-17T04:09:49.124Z,85.19
2022-08-17T04:12:18.087Z,85.46
2022-08-17T04:14:53.699Z,84.93
2022-08-17T04:17:27.521Z,84.90
2022-08-17T04:19:58.515Z,85.59
2022-08-17T04:22:33.378Z,85.65
2022-08-17T04:25:20.001Z,85.98
2022-08-17T04:27:52.724Z,84.44
2022-08-17T04:30:20.612Z,84.44
2022-08-17T04:33:04.895Z,84.78
2022-08-17T04:35:42.239Z,84.74
2022-08-17T04:38:26.371Z,84.59
2022-08-17T04:41:15.945Z,84.67
2022-08-17T04:43:44.617Z,84.50
2022-08-17T04:46:15.719Z,84.55
2022-08-17T04:48:54.333Z,84.78
2022-08-17T04:51:49.678Z,85.20
2022-08-17T04:54:24.184Z,86.29
2022-08-17T04:56:56.934Z,84.98
2022-08-17T04:59:27.406Z,85.39
2022-08-17T05:01:55.824Z,85.05
2022-08-17T05:04:34.287Z,85.16
2022-08-17T05:07:06.111Z,84.41
2022-08-17T05:09:33.860Z,84.72
2022-08-17T05:12:05.259Z,84.46
2022-08-17T05:14:33.954Z,84.35
2022-08-17T05:17:07.027Z,83.99
2022-08-17T05:19:39.983Z,83.89
2022-08-17T05:22:10.717Z,83.79
2022-08-17T05:24:43.468Z,83.98
2022-08-17T05:27:21.070Z,83.72
2022-08-17T05:29:51.324Z,83.75
2022-08-17T05:32:38.257Z,83.79
2022-08-17T05:35:08.245Z,83.87
2022-08-17T05:37:36.009Z,83.28
2022-08-17T05:40:11.516Z,82.58
2022-08-17T05:42:39.323Z,82.33
2022-08-17T05:45:07.979Z,81.17
2022-08-17T05:47:45.258Z,80.52
2022-08-17T05:50:32.961Z,78.80
2022-08-17T05:53:12.295Z,76.92
2022-08-17T05:56:29.156Z,76.33
2022-08-17T05:59:09.215Z,76.32
2022-08-17T06:01:58.858Z,75.44
2022-08-17T06:04:32.293Z,74.18
2022-08-17T06:07:28.854Z,74.29
2022-08-17T06:10:05.117Z,73.67
2022-08-17T06:13:01.173Z,73.67
2022-08-17T06:16:32.930Z,72.65
2022-08-17T06:19:35.065Z,73.24
2022-08-17T06:22:05.184Z,73.05
2022-08-17T06:24:42.284Z,73.72
2022-08-17T06:27:31.394Z,74.07
2022-08-17T06:30:05.235Z,74.36
2022-08-17T06:32:33.193Z,73.72
2022-08-17T06:35:01.556Z,74.07
2022-08-17T06:37:38.321Z,74.43
2022-08-17T06:40:21.494Z,74.55
2022-08-17T06:43:17.064Z,73.75
2022-08-17T06:45:50.265Z,72.82
2022-08-17T06:49:11.553Z,71.81
2022-08-17T06:51:44.732Z,70.96
2022-08-17T06:54:26.607Z,71.13
2022-08-17T06:57:07.564Z,70.88
2022-08-17T06:59:59.898Z,71.71
2022-08-17T07:02:51.521Z,72.19
2022-08-17T07:05:49.608Z,70.90
2022-08-17T07:08:58.518Z,68.79
2022-08-17T07:11:33.233Z,68.18
2022-08-17T07:14:17.508Z,68.75
2022-08-17T07:17:18.309Z,66.57
2022-08-17T07:19:49.716Z,67.17
2022-08-17T07:22:26.300Z,66.73
2022-08-17T07:24:59.443Z,66.04
2022-08-17T07:27:29.723Z,66.12
2022-08-17T07:30:06.765Z,65.57
2022-08-17T07:32:49.008Z,64.95
2022-08-17T07:35:31.228Z,64.77
2022-08-17T07:38:31.755Z,63.95
2022-08-17T07:41:03.566Z,61.89
2022-08-17T07:43:57.808Z,61.78
2022-08-17T07:46:44.987Z,59.61
2022-08-17T07:49:15.932Z,60.23
2022-08-17T07:51:43.702Z,58.29
2022-08-17T07:54:17.740Z,56.93
2022-08-17T07:56:56.411Z,55.50
2022-08-17T07:59:33.695Z,54.63
2022-08-17T08:02:07.237Z,56.57
2022-08-17T08:07:29.743Z,56.70
2022-08-17T08:10:01.730Z,55.11
2022-08-17T08:12:34.613Z,53.32
2022-08-17T08:15:10.537Z,54.26
2022-08-17T08:17:53.157Z,51.08
2022-08-17T08:20:52.763Z,50.15
2022-08-17T08:23:43.317Z,50.43
2022-08-17T08:26:29.821Z,51.68
2022-08-17T08:29:42.410Z,52.29
2022-08-17T08:32:20.723Z,52.70
2022-08-17T08:35:02.511Z,52.63
2022-08-17T08:37:43.337Z,50.80
2022-08-17T08:40:38.249Z,49.53
2022-08-17T08:43:42.119Z,49.33
2022-08-17T08:46:19.650Z,49.46
2022-08-17T08:49:12.438Z,50.87
2022-08-17T08:52:00.013Z,51.72
2022-08-17T08:54:36.559Z,50.21
2022-08-17T08:57:42.669Z,50.09
2022-08-17T09:00:24.403Z,50.53
2022-08-17T09:03:01.466Z,49.73
2022-08-17T09:05:56.071Z,49.98
2022-08-17T09:08:54.935Z,48.59
2022-08-17T09:11:32.231Z,48.95
2022-08-17T09:14:05.976Z,49.86
2022-08-17T09:17:14.035Z,49.04
2022-08-17T09:19:46.507Z,48.41
2022-08-17T09:22:35.512Z,46.93
2022-08-17T09:25:29.620Z,46.71
2022-08-17T09:28:08.913Z,46.64
2022-08-17T09:30:46.633Z,45.63
2022-08-17T09:33:18.355Z,46.01
2022-08-17T09:36:00.145Z,45.42
2022-08-17T09:38:52.194Z,44.14
2022-08-17T09:41:48.593Z,45.59
2022-08-17T09:44:57.986Z,45.33
2022-08-17T09:47:33.203Z,45.18
2022-08-17T09:50:06.232Z,45.83
2022-08-17T09:52:34.221Z,44.66
2022-08-17T09:55:03.002Z,43.41
2022-08-17T09:57:32.199Z,45.60
2022-08-17T10:00:32.522Z,45.54
2022-08-17T10:03:17.606Z,45.34
2022-08-17T10:05:57.245Z,45.06
2022-08-17T10:08:33.757Z,46.18
2022-08-17T10:11:15.807Z,44.00
2022-08-17T10:13:59.534Z,43.98
2022-08-17T10:16:42.459Z,43.53
2022-08-17T10:19:16.818Z,42.88
2022-08-17T10:22:32.362Z,41.75
2022-08-17T10:25:23.480Z,42.17
2022-08-17T10:27:56.778Z,42.31
2022-08-17T10:30:29.760Z,42.30
2022-08-17T10:33:03.156Z,41.87
2022-08-17T10:35:39.841Z,43.34
2022-08-17T10:38:38.405Z,42.19
2022-08-17T10:41:25.483Z,42.33
2022-08-17T10:44:39.608Z,40.24
2022-08-17T10:47:19.483Z,40.53
2022-08-17T10:49:57.188Z,40.00
2022-08-17T10:52:25.247Z,40.89
2022-08-17T10:54:58.328Z,40.56
2022-08-17T10:57:38.507Z,41.10
2022-08-17T11:00:17.064Z,39.87
2022-08-17T11:02:58.617Z,41.55
2022-08-17T11:05:55.193Z,40.31
2022-08-17T11:08:32.337Z,40.50
2022-08-17T11:11:14.626Z,40.76
2022-08-17T11:14:00.680Z,41.68
2022-08-17T11:17:07.549Z,39.56
2022-08-17T11:19:40.329Z,40.66
2022-08-17T11:22:33.502Z,39.07
2022-08-17T11:25:24.232Z,39.15
2022-08-17T11:27:54.805Z,40.19
2022-08-17T11:30:48.707Z,40.12
2022-08-17T11:33:38.279Z,40.42
2022-08-17T11:36:15.748Z,38.01
2022-08-17T11:39:06.373Z,38.89
2022-08-17T11:41:58.296Z,37.99
2022-08-17T11:44:57.682Z,39.52
2022-08-17T11:48:15.917Z,37.44
2022-08-17T11:51:12.163Z,37.21
2022-08-17T11:53:40.389Z,37.17
2022-08-17T11:56:32.986Z,38.63
2022-08-17T11:59:01.944Z,37.28
2022-08-17T12:01:48.152Z,36.27
2022-08-17T12:04:28.920Z,36.94
2022-08-17T12:07:00.984Z,36.82
2022-08-17T12:09:35.887Z,36.21
2022-08-17T12:12:15.871Z,36.77
2022-08-17T12:17:42.670Z,35.59
2022-08-17T12:20:38.409Z,35.15
2022-08-17T12:23:13.937Z,35.80
2022-08-17T12:25:57.896Z,36.27
2022-08-17T12:28:33.833Z,35.20
2022-08-17T12:31:05.595Z,37.46
2022-08-17T12:33:38.011Z,35.88
2022-08-17T12:36:15.988Z,36.23
2022-08-17T12:38:59.185Z,35.88
2022-08-17T12:41:52.008Z,34.40
2022-08-17T12:44:31.576Z,34.58
2022-08-17T12:47:08.251Z,36.60
2022-08-17T12:49:40.527Z,34.18
2022-08-17T12:52:21.297Z,36.65
2022-08-17T12:54:54.773Z,34.26
2022-08-17T12:57:34.084Z,35.03
2022-08-17T13:00:30.496Z,34.97
2022-08-17T13:03:07.189Z,33.73
2022-08-17T13:06:01.921Z,34.10
2022-08-17T13:08:39.695Z,34.90
2022-08-17T13:11:19.461Z,35.08
2022-08-17T13:13:55.976Z,35.07
2022-08-17T13:16:32.011Z,34.22
2022-08-17T13:19:14.037Z,34.69
2022-08-17T13:21:53.750Z,35.44
2022-08-17T13:24:47.180Z,36.09
2022-08-17T13:27:21.087Z,36.19
2022-08-17T13:29:54.621Z,36.55
2022-08-17T13:32:48.313Z,36.13
2022-08-17T13:35:47.100Z,36.01
2022-08-17T13:38:40.607Z,36.02
2022-08-17T13:41:32.496Z,36.24
2022-08-17T13:44:19.818Z,35.35
2022-08-17T13:46:55.912Z,35.78
2022-08-17T13:49:48.086Z,35.86
2022-08-17T13:52:52.577Z,36.51
2022-08-17T13:55:28.004Z,36.56
2022-08-17T13:58:06.634Z,37.10
2022-08-17T14:00:41.926Z,36.85
2022-08-17T14:03:09.922Z,36.70
2022-08-17T14:05:39.895Z,36.58
2022-08-17T14:08:12.810Z,36.62
2022-08-17T14:10:40.702Z,36.69
2022-08-17T14:13:12.313Z,36.80
2022-08-17T14:15:54.868Z,38.16
2022-08-17T14:18:56.870Z,36.88
2022-08-17T14:21:27.783Z,39.13
2022-08-17T14:23:59.338Z,37.74
2022-08-17T14:26:34.808Z,37.59
2022-08-17T14:29:02.944Z,39.32
2022-08-17T14:31:35.444Z,39.67
2022-08-17T14:34:06.210Z,40.41
2022-08-17T14:36:34.181Z,40.80
2022-08-17T14:39:06.761Z,40.33
2022-08-17T14:41:34.784Z,40.23
2022-08-17T14:44:02.828Z,41.04
2022-08-17T14:46:31.008Z,40.97
2022-08-17T14:49:04.052Z,41.97
2022-08-17T14:51:32.093Z,43.04
2022-08-17T14:54:07.046Z,43.82
2022-08-17T14:56:38.678Z,43.03
2022-08-17T14:59:09.341Z,42.62
2022-08-17T15:01:44.504Z,42.43
2022-08-17T15:04:19.835Z,44.08
2022-08-17T15:06:52.972Z,43.15
2022-08-17T15:09:23.847Z,42.46
2022-08-17T15:11:54.839Z,42.62
2022-08-17T15:14:22.979Z,42.95
2022-08-17T15:16:55.656Z,42.49
2022-08-17T15:19:29.293Z,42.43
2022-08-17T15:21:57.239Z,42.60
2022-08-17T15:24:25.095Z,43.26
2022-08-17T15:26:53.209Z,43.95
2022-08-17T15:29:25.954Z,44.14
2022-08-17T15:31:58.691Z,44.79
2022-08-17T15:34:28.523Z,44.09
2022-08-17T15:37:01.683Z,43.82
2022-08-17T15:39:29.957Z,43.50
2022-08-17T15:41:58.548Z,42.96
2022-08-17T15:44:34.835Z,43.08
2022-08-17T15:47:11.187Z,43.24
2022-08-17T15:49:41.746Z,44.19
2022-08-17T15:52:19.873Z,43.48
2022-08-17T15:54:58.643Z,43.69
2022-08-17T15:57:28.890Z,43.31
2022-08-17T16:00:01.811Z,42.75
2022-08-17T16:03:46.253Z,42.99
2022-08-17T16:05:31.728Z,43.22
2022-08-17T16:08:00.839Z,43.16
2022-08-17T16:10:35.187Z,43.50
2022-08-17T16:13:17.155Z,43.82
2022-08-17T16:15:51.122Z,43.89
2022-08-17T16:18:32.474Z,43.73
2022-08-17T16:21:43.228Z,43.39
2022-08-17T16:24:15.006Z,43.63
2022-08-17T16:26:45.984Z,43.90
2022-08-17T16:29:17.009Z,45.62
2022-08-17T16:31:49.304Z,44.71
2022-08-17T16:34:18.659Z,45.07
2022-08-17T16:36:54.836Z,44.86
2022-08-17T16:39:24.465Z,45.30
2022-08-17T16:41:54.953Z,45.06
2022-08-17T16:44:28.173Z,44.92
2022-08-17T16:47:02.202Z,46.46
2022-08-17T16:49:36.941Z,47.58
2022-08-17T16:52:11.291Z,48.56
2022-08-17T16:54:48.051Z,50.41
2022-08-17T16:57:17.143Z,50.81
2022-08-17T16:59:48.117Z,51.13
2022-08-17T17:02:40.436Z,51.03
2022-08-17T17:05:57.704Z,51.41
2022-08-17T17:08:53.447Z,52.31
2022-08-17T17:11:53.884Z,52.62
2022-08-17T17:14:24.065Z,52.75
2022-08-17T17:17:04.886Z,51.30
2022-08-17T17:19:42.945Z,51.20
2022-08-17T17:22:18.067Z,50.82
2022-08-17T17:25:15.581Z,49.83
2022-08-17T17:28:20.687Z,48.56
2022-08-17T17:31:07.283Z,45.74
2022-08-17T17:33:50.073Z,47.11
2022-08-17T17:36:34.941Z,46.56
2022-08-17T17:39:10.968Z,46.21
2022-08-17T17:41:43.345Z,46.15
2022-08-17T17:44:15.261Z,46.99
2022-08-17T17:46:55.947Z,48.33
2022-08-17T17:49:28.503Z,48.53
2022-08-17T17:52:40.274Z,47.75
2022-08-17T17:55:30.786Z,46.81
2022-08-17T17:58:34.591Z,48.31
2022-08-17T18:01:21.196Z,48.01
2022-08-17T18:04:00.648Z,48.50
2022-08-17T18:06:46.692Z,49.21
2022-08-17T18:09:20.527Z,48.90
2022-08-17T18:12:11.736Z,49.53
2022-08-17T18:15:00.911Z,49.25
2022-08-17T18:17:32.253Z,49.59
2022-08-17T18:20:00.341Z,49.77
2022-08-17T18:22:36.280Z,49.94
2022-08-17T18:25:06.840Z,50.84
2022-08-17T18:27:40.824Z,50.70
2022-08-17T18:30:14.572Z,50.37
2022-08-17T18:32:47.624Z,50.67
2022-08-17T18:35:30.336Z,50.58
2022-08-17T18:38:22.993Z,51.76
2022-08-17T18:41:31.538Z,50.82
2022-08-17T18:44:06.556Z,52.00
2022-08-17T18:46:37.992Z,52.51
2022-08-17T18:49:26.890Z,53.57
2022-08-17T18:52:11.203Z,55.11
2022-08-17T18:54:44.265Z,56.29
2022-08-17T18:57:12.162Z,55.40
2022-08-17T18:59:49.535Z,55.42
2022-08-17T19:02:43.419Z,60.40
2022-08-17T19:05:41.187Z,58.73
2022-08-17T19:08:22.019Z,57.27
2022-08-17T19:10:56.061Z,57.95
2022-08-17T19:13:33.580Z,57.94
2022-08-17T19:16:26.355Z,57.44
2022-08-17T19:19:13.655Z,57.34
2022-08-17T19:22:07.788Z,56.52
2022-08-17T19:24:45.254Z,57.22
2022-08-17T19:27:19.536Z,56.92
2022-08-17T19:29:56.489Z,57.20
2022-08-17T19:32:27.688Z,57.50
2022-08-17T19:34:56.430Z,57.04
2022-08-17T19:38:01.940Z,57.26
2022-08-17T19:40:53.585Z,56.69
2022-08-17T19:43:48.386Z,56.19
2022-08-17T19:46:30.712Z,56.76
2022-08-17T19:49:05.904Z,56.97
2022-08-17T19:51:48.043Z,55.81
2022-08-17T19:54:35.016Z,55.53
2022-08-17T19:57:11.557Z,56.46
2022-08-17T19:59:55.509Z,55.69
2022-08-17T20:02:32.117Z,56.29
2022-08-17T20:05:08.621Z,56.83
2022-08-17T20:08:02.965Z,54.26
2022-08-17T20:10:39.498Z,56.66
2022-08-17T20:13:15.337Z,58.04
2022-08-17T20:15:45.621Z,57.07
2022-08-17T20:18:20.761Z,55.09
2022-08-17T20:20:56.953Z,56.77
2022-08-17T20:23:36.942Z,56.62
2022-08-17T20:26:20.185Z,53.86
2022-08-17T20:29:08.828Z,54.05
2022-08-17T20:31:46.611Z,58.58
2022-08-17T20:34:38.185Z,56.36
2022-08-17T20:37:25.537Z,57.67
2022-08-17T20:39:56.035Z,54.32
2022-08-17T20:42:23.815Z,54.97
2022-08-17T20:45:06.552Z,55.72
2022-08-17T20:48:07.783Z,55.73
2022-08-17T20:50:46.584Z,53.58
2022-08-17T20:53:54.613Z,54.42
2022-08-17T20:56:50.400Z,55.55
2022-08-17T20:59:27.060Z,57.27
2022-08-17T21:02:17.673Z,59.30
2022-08-17T21:05:06.958Z,59.66
2022-08-17T21:07:43.489Z,61.84
2022-08-17T21:10:29.310Z,64.11
2022-08-17T21:13:09.677Z,67.79
2022-08-17T21:15:48.075Z,69.30
2022-08-17T21:18:39.895Z,71.00
2022-08-17T21:21:20.575Z,70.43
2022-08-17T21:24:23.089Z,71.06
2022-08-17T21:27:38.532Z,73.14
2022-08-17T21:30:10.002Z,72.63
2022-08-17T21:33:06.330Z,71.68
2022-08-17T21:35:48.492Z,72.41
2022-08-17T21:38:19.352Z,73.36
2022-08-17T21:40:51.641Z,73.76
2022-08-17T21:43:37.615Z,73.37
2022-08-17T21:46:14.673Z,73.19
2022-08-17T21:48:48.342Z,72.73
2022-08-17T21:51:22.216Z,72.51
2022-08-17T21:56:42.214Z,73.56
2022-08-17T21:59:28.442Z,72.39
2022-08-17T22:01:58.730Z,72.53
2022-08-17T22:04:33.449Z,72.17
2022-08-17T22:07:07.863Z,73.19
2022-08-17T22:09:43.746Z,71.90
2022-08-17T22:12:15.656Z,71.75
2022-08-17T22:14:53.962Z,71.55
2022-08-17T22:17:51.635Z,71.90
2022-08-17T22:20:20.303Z,71.63
2022-08-17T22:23:09.766Z,71.97
2022-08-17T22:25:54.322Z,74.13
2022-08-17T22:28:44.248Z,76.11
2022-08-17T22:31:14.474Z,77.80
2022-08-17T22:33:50.680Z,75.72
2022-08-17T22:36:31.298Z,77.34
2022-08-17T22:39:21.785Z,78.63
2022-08-17T22:41:52.936Z,77.49
2022-08-17T22:44:38.631Z,76.76
2022-08-17T22:47:19.940Z,78.61
2022-08-17T22:49:54.125Z,78.53
2022-08-17T22:52:35.572Z,78.31
2022-08-17T22:55:33.700Z,77.90
2022-08-17T22:58:20.352Z,79.99
2022-08-17T23:00:54.429Z,79.96
2022-08-17T23:03:26.827Z,81.44
2022-08-17T23:06:14.653Z,83.14
2022-08-17T23:09:00.574Z,83.64
2022-08-17T23:11:49.774Z,83.68
2022-08-17T23:14:20.891Z,83.54
2022-08-17T23:16:54.893Z,83.70
2022-08-17T23:19:33.381Z,82.51
2022-08-17T23:22:02.107Z,84.31
2022-08-17T23:24:31.668Z,83.42
2022-08-17T23:27:00.094Z,83.49
2022-08-17T23:29:30.800Z,83.47
2022-08-17T23:32:00.782Z,83.26
2022-08-17T23:34:29.138Z,82.58
2022-08-17T23:37:01.789Z,82.38
2022-08-17T23:39:37.707Z,82.32
2022-08-17T23:42:10.810Z,83.74
2022-08-17T23:44:42.703Z,82.98
2022-08-17T23:47:11.232Z,83.29
2022-08-17T23:49:39.836Z,83.77
2022-08-17T23:52:08.963Z,83.19
2022-08-17T23:54:44.936Z,83.48
2022-08-17T23:57:19.985Z,85.27
